Time;durP1;ratioP1;P1;durP2;ratioP2;P2;SDS_P1;SDS_P2;PMS_P1;PMS_P2;Temp;Humidity;BMP_temperature;BMP_pressure;BME280_temperature;BME280_humidity;BME280_pressure;Samples;Min_cycle;Max_cycle;Signal;HPM_P1;HPM_P2
2022/04/20 00:00:44;;;;;;;3.50;3.10;;;11.20;35.70;;;;;;5081922;28;20276;-40
2022/04/20 00:03:10;;;;;;;3.73;3.40;;;11.20;35.80;;;;;;5082151;28;20200;-39
2022/04/20 00:05:35;;;;;;;4.53;3.60;;;11.20;36.20;;;;;;5082183;28;20813;-39
2022/04/20 00:08:01;;;;;;;3.73;3.30;;;11.10;36.30;;;;;;5082422;28;20574;-39
2022/04/20 00:10:30;;;;;;;3.60;3.17;;;11.10;36.40;;;;;;5080332;28;20209;-39
2022/04/20 00:12:55;;;;;;;4.67;3.70;;;11.10;36.60;;;;;;5080805;28;20226;-39
2022/04/20 00:15:21;;;;;;;3.77;3.40;;;11.00;36.80;;;;;;5063898;28;20421;-40
2022/04/20 00:17:47;;;;;;;3.50;3.20;;;10.90;37.00;;;;;;5062906;28;20780;-42
2022/04/20 00:20:13;;;;;;;4.30;3.60;;;10.90;37.20;;;;;;5081242;28;20416;-40
2022/04/20 00:22:39;;;;;;;4.53;3.50;;;10.90;37.30;;;;;;5080844;28;20607;-39
2022/04/20 00:25:05;;;;;;;5.07;3.80;;;10.80;37.50;;;;;;5080122;28;20513;-39
2022/04/20 00:27:37;;;;;;;4.93;4.43;;;10.80;37.60;;;;;;5081356;28;20352;-40
2022/04/20 00:30:10;;;;;;;3.93;3.60;;;10.80;37.80;;;;;;5080465;28;20497;-39
2022/04/20 00:32:35;;;;;;;4.70;3.80;;;10.70;37.90;;;;;;5081092;28;20428;-39
2022/04/20 00:35:01;;;;;;;6.23;3.60;;;10.70;38.10;;;;;;5080958;28;20404;-41
2022/04/20 00:37:27;;;;;;;4.63;4.23;;;10.70;38.10;;;;;;5063243;28;20751;-39
2022/04/20 00:39:53;;;;;;;5.57;3.80;;;10.60;38.30;;;;;;5063394;28;20192;-39
2022/04/20 00:42:23;;;;;;;5.33;4.73;;;10.60;38.60;;;;;;5079819;28;20440;-41
2022/04/20 00:44:49;;;;;;;4.60;4.13;;;10.60;38.70;;;;;;5080730;28;20185;-37
2022/04/20 00:47:15;;;;;;;6.83;4.50;;;10.60;38.90;;;;;;5079256;28;20773;-40
2022/04/20 00:49:42;;;;;;;4.80;4.30;;;10.50;39.00;;;;;;5080016;28;20542;-39
2022/04/20 00:52:08;;;;;;;5.07;4.60;;;10.50;39.20;;;;;;5079887;28;20432;-39
2022/04/20 00:54:33;;;;;;;5.20;4.70;;;10.50;39.40;;;;;;5078609;28;20498;-38
2022/04/20 00:56:59;;;;;;;6.37;5.37;;;10.40;39.40;;;;;;5079079;28;20247;-39
2022/04/20 00:59:27;;;;;;;5.10;4.60;;;10.40;39.60;;;;;;5078201;28;20505;-39
2022/04/20 01:01:53;;;;;;;4.90;4.40;;;10.40;39.80;;;;;;5078607;28;20432;-40
2022/04/20 01:04:19;;;;;;;5.70;5.20;;;10.30;39.90;;;;;;5079531;28;20403;-40
2022/04/20 01:06:51;;;;;;;5.43;4.93;;;10.30;40.00;;;;;;5078958;28;20429;-38
2022/04/20 01:09:17;;;;;;;4.90;4.40;;;10.30;40.20;;;;;;5079831;28;20408;-41
2022/04/20 01:11:44;;;;;;;5.17;4.67;;;10.20;40.30;;;;;;5079135;28;20586;-38
2022/04/20 01:14:10;;;;;;;5.67;5.17;;;10.20;40.50;;;;;;5062556;28;20428;-38
2022/04/20 01:16:35;;;;;;;7.20;4.83;;;10.10;40.50;;;;;;5045274;28;20428;-49
2022/04/20 01:19:16;;;;;;;7.27;5.30;;;10.10;40.60;;;;;;5079920;28;20688;-46
2022/04/20 01:21:42;;;;;;;5.13;4.67;;;10.00;40.60;;;;;;5078966;28;20452;-47
2022/04/20 01:24:08;;;;;;;7.17;5.40;;;10.00;40.70;;;;;;5079037;28;20436;-47
2022/04/20 01:26:34;;;;;;;6.80;5.40;;;10.00;40.80;;;;;;5079683;28;20416;-47
2022/04/20 01:29:02;;;;;;;6.03;5.53;;;10.00;41.00;;;;;;5078616;28;20293;-47
2022/04/20 01:31:29;;;;;;;6.70;4.80;;;9.90;41.80;;;;;;5078937;28;20467;-47
2022/04/20 01:33:55;;;;;;;5.40;4.80;;;9.90;41.90;;;;;;5079272;28;20459;-47
2022/04/20 01:36:21;;;;;;;5.23;4.73;;;9.90;41.90;;;;;;5079610;28;20451;-47
2022/04/20 01:38:46;;;;;;;4.87;4.47;;;9.90;42.00;;;;;;5061365;28;20526;-47
2022/04/20 01:41:12;;;;;;;5.90;5.40;;;9.80;42.00;;;;;;5079261;28;20178;-47
2022/04/20 01:43:38;;;;;;;5.77;5.27;;;9.80;42.10;;;;;;5078732;28;20603;-47
2022/04/20 01:46:03;;;;;;;5.73;4.90;;;9.80;42.20;;;;;;5078215;28;20193;-47
2022/04/20 01:48:29;;;;;;;9.60;5.67;;;9.70;42.20;;;;;;5077776;28;20201;-47
2022/04/20 01:53:48;;;;;;;6.43;5.07;;;9.70;42.50;;;;;;5077737;28;20277;-47
2022/04/20 01:56:13;;;;;;;5.90;5.40;;;9.60;42.50;;;;;;5078682;28;20511;-47
2022/04/20 01:58:39;;;;;;;5.27;4.77;;;9.60;42.60;;;;;;5077816;28;20191;-47
2022/04/20 02:02:34;;;;;;;5.50;4.67;;;9.60;42.80;;;;;;5078734;28;20186;-47
2022/04/20 02:03:50;;;;;;;5.00;4.60;;;9.50;42.80;;;;;;5077851;28;20200;-47
2022/04/20 02:06:15;;;;;;;5.17;4.53;;;9.50;43.00;;;;;;5078295;28;20821;-47
2022/04/20 02:08:41;;;;;;;8.70;4.77;;;9.40;43.00;;;;;;5077805;28;20566;-47
2022/04/20 02:11:07;;;;;;;5.90;5.33;;;9.40;43.20;;;;;;5060680;28;20502;-47
2022/04/20 02:13:33;;;;;;;5.70;5.10;;;9.40;43.40;;;;;;5077965;28;20486;-47
2022/04/20 02:15:58;;;;;;;6.90;5.40;;;9.40;43.50;;;;;;5078320;28;20575;-47
2022/04/20 02:18:24;;;;;;;5.87;5.37;;;9.30;43.60;;;;;;5078064;28;20282;-52
2022/04/20 02:20:50;;;;;;;6.07;5.57;;;9.30;43.70;;;;;;5078719;28;20412;-47
2022/04/20 02:23:15;;;;;;;5.80;5.30;;;9.20;43.90;;;;;;5077439;28;20200;-47
2022/04/20 02:25:41;;;;;;;5.90;5.40;;;9.20;44.00;;;;;;5078383;28;20205;-46
2022/04/20 02:28:07;;;;;;;5.90;5.30;;;9.10;44.00;;;;;;5077788;28;20263;-47
2022/04/20 02:30:32;;;;;;;6.70;5.27;;;9.10;44.00;;;;;;5077789;28;20210;-47
2022/04/20 02:32:58;;;;;;;5.93;5.37;;;9.10;44.20;;;;;;5060117;28;20193;-47
2022/04/20 02:35:23;;;;;;;6.00;5.50;;;9.10;44.20;;;;;;5077998;28;20155;-47
2022/04/20 02:37:49;;;;;;;6.57;5.97;;;9.00;44.20;;;;;;5060542;28;20182;-47
2022/04/20 02:40:15;;;;;;;6.00;5.50;;;9.00;44.30;;;;;;5077655;28;20283;-47
2022/04/20 02:42:41;;;;;;;5.50;5.03;;;8.90;44.30;;;;;;5077312;28;20434;-47
2022/04/20 02:45:07;;;;;;;5.27;4.83;;;9.00;44.30;;;;;;5077059;28;20185;-46
2022/04/20 02:47:32;;;;;;;6.13;5.57;;;8.90;44.30;;;;;;5059777;28;20197;-47
2022/04/20 02:49:58;;;;;;;6.13;5.53;;;8.90;44.50;;;;;;5076442;28;20546;-47
2022/04/20 02:52:24;;;;;;;6.27;5.67;;;8.80;44.60;;;;;;5077593;28;20531;-47
2022/04/20 02:54:50;;;;;;;5.90;5.40;;;8.80;44.70;;;;;;5076932;28;20174;-47
2022/04/20 02:57:15;;;;;;;5.30;4.90;;;8.80;44.80;;;;;;5075899;28;20191;-47
2022/04/20 02:59:41;;;;;;;6.17;5.63;;;8.70;44.90;;;;;;5075976;28;20408;-47
2022/04/20 03:02:07;;;;;;;6.20;5.70;;;8.70;45.00;;;;;;5076236;28;20189;-47
2022/04/20 03:04:32;;;;;;;6.33;5.73;;;8.70;45.10;;;;;;5076291;28;20591;-47
2022/04/20 03:06:58;;;;;;;6.33;5.73;;;8.60;45.20;;;;;;5076128;28;20434;-47
2022/04/20 03:09:23;;;;;;;6.60;5.83;;;8.60;45.40;;;;;;5076806;28;20181;-46
2022/04/20 03:11:49;;;;;;;6.00;5.40;;;8.60;45.60;;;;;;5076615;28;20596;-47
2022/04/20 03:14:17;;;;;;;5.93;5.43;;;8.50;45.40;;;;;;5077567;28;20189;-47
2022/04/20 03:16:43;;;;;;;5.63;5.13;;;8.50;45.50;;;;;;5077084;28;20460;-47
2022/04/20 03:19:08;;;;;;;5.70;5.20;;;8.50;45.50;;;;;;5077610;28;20481;-47
2022/04/20 03:21:34;;;;;;;6.77;6.20;;;8.50;45.50;;;;;;5077546;28;20426;-47
2022/04/20 03:23:59;;;;;;;6.37;5.87;;;8.50;45.50;;;;;;5076716;28;20228;-47
2022/04/20 03:26:25;;;;;;;5.90;5.40;;;8.50;45.50;;;;;;5077121;28;20573;-47
2022/04/20 03:28:51;;;;;;;6.60;5.10;;;8.50;45.50;;;;;;5077102;28;20192;-47
2022/04/20 03:31:17;;;;;;;6.77;6.20;;;8.40;45.50;;;;;;5076861;28;20278;-47
2022/04/20 03:33:42;;;;;;;5.83;5.13;;;8.40;45.70;;;;;;5077197;28;20210;-47
2022/04/20 03:36:08;;;;;;;6.13;5.53;;;8.40;45.80;;;;;;5077207;28;20421;-47
2022/04/20 03:38:35;;;;;;;6.10;5.50;;;8.30;45.70;;;;;;5076058;28;20428;-47
2022/04/20 03:41:03;;;;;;;6.20;5.60;;;8.30;45.70;;;;;;5076296;28;20519;-47
2022/04/20 03:43:28;;;;;;;5.87;5.33;;;8.30;45.80;;;;;;5058977;28;20538;-47
2022/04/20 03:45:54;;;;;;;6.40;5.80;;;8.30;45.80;;;;;;5076475;28;20496;-47
2022/04/20 03:48:19;;;;;;;6.33;5.80;;;8.30;45.80;;;;;;5075109;28;20579;-47
2022/04/20 03:50:45;;;;;;;5.93;5.43;;;8.30;45.80;;;;;;5074690;28;20302;-47
2022/04/20 03:53:11;;;;;;;5.73;5.23;;;8.30;45.90;;;;;;5074870;28;20182;-47
2022/04/20 03:55:37;;;;;;;5.00;4.50;;;8.20;45.90;;;;;;5073607;28;20215;-47
2022/04/20 03:58:02;;;;;;;6.40;5.80;;;8.20;46.00;;;;;;5055133;28;20408;-46
2022/04/20 04:00:29;;;;;;;5.87;5.30;;;8.10;46.00;;;;;;5072134;28;20340;-47
2022/04/20 04:02:55;;;;;;;6.23;5.73;;;8.10;46.10;;;;;;5072620;28;20189;-47
2022/04/20 04:05:20;;;;;;;6.03;5.43;;;8.10;46.20;;;;;;5055916;28;20446;-48
2022/04/20 04:07:46;;;;;;;5.73;5.03;;;8.00;46.20;;;;;;5074539;28;20179;-47
2022/04/20 04:10:12;;;;;;;5.90;5.40;;;8.00;46.30;;;;;;5076305;28;20308;-47
2022/04/20 04:12:37;;;;;;;6.37;5.77;;;8.00;46.50;;;;;;5078943;28;20708;-47
2022/04/20 04:15:04;;;;;;;5.73;5.13;;;7.90;46.50;;;;;;5079519;28;20227;-47
2022/04/20 04:17:29;;;;;;;6.50;5.90;;;7.90;46.60;;;;;;5080887;28;20192;-47
2022/04/20 04:19:55;;;;;;;5.90;5.40;;;7.90;46.60;;;;;;5079033;28;20433;-47
2022/04/20 04:22:21;;;;;;;6.17;5.43;;;7.90;46.80;;;;;;5078907;28;20212;-47
2022/04/20 04:24:47;;;;;;;5.50;4.87;;;7.90;46.80;;;;;;5078282;28;20500;-46
2022/04/20 04:27:13;;;;;;;5.30;4.90;;;7.90;46.80;;;;;;5078526;28;20182;-47
2022/04/20 04:29:39;;;;;;;5.80;5.20;;;7.80;46.70;;;;;;5077425;28;20428;-47
2022/04/20 04:32:05;;;;;;;5.43;4.93;;;7.80;46.80;;;;;;5078700;28;20470;-47
2022/04/20 04:34:32;;;;;;;5.77;5.27;;;7.80;46.80;;;;;;5078522;28;20197;-47
2022/04/20 04:36:58;;;;;;;5.63;5.17;;;7.90;46.80;;;;;;5078116;28;20745;-47
2022/04/20 04:39:24;;;;;;;5.33;4.93;;;7.90;46.70;;;;;;5077088;28;20432;-47
2022/04/20 04:41:52;;;;;;;5.83;4.40;;;7.90;46.70;;;;;;5077218;28;20539;-46
2022/04/20 04:44:19;;;;;;;5.70;5.20;;;7.80;46.60;;;;;;5077064;28;20481;-47
2022/04/20 04:49:30;;;;;;;5.40;5.00;;;7.80;46.50;;;;;;5075662;28;20493;-47
2022/04/20 04:51:56;;;;;;;5.10;4.70;;;7.90;46.70;;;;;;5077008;28;20897;-47
2022/04/20 04:54:22;;;;;;;5.70;5.20;;;7.90;46.80;;;;;;5077611;28;20432;-47
2022/04/20 04:56:48;;;;;;;5.43;4.93;;;7.90;46.90;;;;;;5078130;28;20408;-47
2022/04/20 04:59:14;;;;;;;4.53;4.13;;;7.90;46.90;;;;;;5059574;28;20449;-47
2022/04/20 05:01:39;;;;;;;5.20;4.80;;;7.90;46.90;;;;;;5077266;28;20175;-47
2022/04/20 05:04:05;;;;;;;7.13;4.80;;;7.90;46.90;;;;;;5076975;28;20222;-47
2022/04/20 05:06:31;;;;;;;6.17;4.80;;;8.00;47.00;;;;;;5078119;28;20177;-47
2022/04/20 05:08:57;;;;;;;4.70;4.30;;;8.00;47.00;;;;;;5076539;28;20531;-47
2022/04/20 05:11:22;;;;;;;4.70;4.30;;;8.00;46.80;;;;;;5075088;28;20521;-47
2022/04/20 05:13:48;;;;;;;5.63;5.13;;;8.10;46.70;;;;;;5074276;28;20509;-47
2022/04/20 05:16:13;;;;;;;6.50;5.60;;;8.10;46.60;;;;;;5074760;28;20236;-47
2022/04/20 05:18:39;;;;;;;5.20;4.70;;;8.20;46.30;;;;;;5074199;28;20190;-47
2022/04/20 05:21:05;;;;;;;4.83;4.43;;;8.20;46.00;;;;;;5076469;28;20242;-47
2022/04/20 05:23:31;;;;;;;5.10;4.70;;;8.30;45.90;;;;;;5075798;28;20276;-47
2022/04/20 05:25:56;;;;;;;4.40;4.00;;;8.30;45.70;;;;;;5075331;28;20194;-47
2022/04/20 05:28:22;;;;;;;5.17;4.67;;;8.40;45.70;;;;;;5075239;28;20205;-47
2022/04/20 05:30:48;;;;;;;4.87;4.47;;;8.40;45.60;;;;;;5074068;28;20267;-47
2022/04/20 05:33:14;;;;;;;4.67;4.27;;;8.50;45.50;;;;;;5074752;28;20274;-47
2022/04/20 05:35:40;;;;;;;5.30;4.13;;;8.50;45.30;;;;;;5057137;28;20420;-47
2022/04/20 05:43:34;;;;;;;6.57;4.50;;;8.80;44.90;;;;;;5075880;28;20415;-47
2022/04/20 05:46:00;;;;;;;3.67;3.37;;;8.90;44.70;;;;;;5076401;28;20424;-47
2022/04/20 05:48:26;;;;;;;4.17;3.77;;;9.00;44.60;;;;;;5076041;28;20181;-47
2022/04/20 05:50:51;;;;;;;4.20;3.80;;;9.10;44.30;;;;;;5072318;28;20205;-47
2022/04/20 05:53:17;;;;;;;4.30;3.90;;;9.20;44.10;;;;;;5073225;28;20512;-47
2022/04/20 05:55:43;;;;;;;4.43;4.03;;;9.40;43.90;;;;;;5054969;28;20201;-47
2022/04/20 05:58:09;;;;;;;5.27;3.90;;;9.50;43.70;;;;;;5073071;28;20422;-47
2022/04/20 06:00:35;;;;;;;6.73;4.20;;;9.60;43.30;;;;;;5074735;28;20241;-47
2022/04/20 06:03:00;;;;;;;5.10;4.00;;;9.80;43.50;;;;;;5073991;28;20189;-47
2022/04/20 06:05:26;;;;;;;5.33;4.03;;;9.90;42.60;;;;;;5072592;28;20626;-47
2022/04/20 06:07:51;;;;;;;5.50;4.00;;;10.10;41.70;;;;;;5071502;28;20204;-47
2022/04/20 06:10:17;;;;;;;4.17;3.77;;;10.20;41.60;;;;;;5073816;28;20497;-47
2022/04/20 06:12:43;;;;;;;4.83;4.33;;;10.40;41.30;;;;;;5053673;28;20260;-47
2022/04/20 06:15:09;;;;;;;4.10;3.70;;;10.60;41.10;;;;;;5073464;28;20239;-47
2022/04/20 06:17:35;;;;;;;4.47;4.07;;;10.70;40.60;;;;;;5073058;28;20185;-47
2022/04/20 06:20:01;;;;;;;4.33;3.93;;;10.90;40.40;;;;;;5057180;28;20865;-47
2022/04/20 06:22:27;;;;;;;3.40;3.10;;;11.00;40.20;;;;;;5075068;28;20434;-47
2022/04/20 06:24:52;;;;;;;3.97;3.57;;;11.20;40.00;;;;;;5074391;28;20408;-47
2022/04/20 06:27:18;;;;;;;3.33;3.03;;;11.30;39.70;;;;;;5056359;28;20545;-47
2022/04/20 06:29:44;;;;;;;3.87;3.57;;;11.50;39.60;;;;;;5074149;28;20174;-47
2022/04/20 06:32:10;;;;;;;5.20;4.27;;;11.60;39.30;;;;;;5073176;28;20251;-47
2022/04/20 06:34:36;;;;;;;3.80;3.50;;;11.80;38.90;;;;;;5075440;28;20428;-47
2022/04/20 06:37:03;;;;;;;3.73;3.43;;;11.90;38.40;;;;;;5074697;28;20883;-47
2022/04/20 06:39:30;;;;;;;6.07;3.70;;;12.00;38.30;;;;;;5075050;28;20180;-47
2022/04/20 06:41:56;;;;;;;6.73;4.00;;;12.10;38.20;;;;;;5074094;28;20523;-47
2022/04/20 06:44:21;;;;;;;6.47;4.40;;;12.20;37.90;;;;;;5073106;28;20432;-47
2022/04/20 06:46:47;;;;;;;4.00;3.70;;;12.30;37.90;;;;;;5073956;28;20415;-47
2022/04/20 06:49:14;;;;;;;4.60;4.17;;;12.50;37.90;;;;;;5074438;28;20205;-47
2022/04/20 06:59:53;;;;;;;4.30;3.90;;;13.20;37.30;;;;;;5057382;28;20655;-47
2022/04/20 07:02:20;;;;;;;3.83;3.53;;;13.40;37.10;;;;;;5073371;28;20412;-47
2022/04/20 07:04:46;;;;;;;3.50;3.20;;;13.60;36.80;;;;;;5074282;28;20729;-42
2022/04/20 07:07:13;;;;;;;4.13;3.73;;;13.70;36.70;;;;;;5071394;28;20414;-45
2022/04/20 07:09:38;;;;;;;4.07;3.67;;;13.90;36.60;;;;;;5055931;28;20514;-43
2022/04/20 07:12:04;;;;;;;4.87;3.73;;;14.00;36.60;;;;;;5074220;28;20514;-44
2022/04/20 07:14:30;;;;;;;4.07;3.67;;;14.30;36.60;;;;;;5072674;28;20182;-42
2022/04/20 07:16:56;;;;;;;4.13;3.83;;;14.40;36.30;;;;;;5052945;28;20849;-44
2022/04/20 07:19:21;;;;;;;3.83;3.10;;;14.70;36.10;;;;;;5070140;28;20581;-46
2022/04/20 07:21:48;;;;;;;3.43;3.13;;;14.80;35.90;;;;;;5069322;28;20571;-45
2022/04/20 07:24:13;;;;;;;4.90;3.33;;;15.00;35.60;;;;;;5069100;28;20243;-44
2022/04/20 07:26:40;;;;;;;3.87;3.53;;;15.10;35.40;;;;;;5070103;28;20448;-43
2022/04/20 07:29:06;;;;;;;4.40;3.60;;;15.30;35.20;;;;;;5053774;28;20199;-44
2022/04/20 07:31:31;;;;;;;4.40;3.87;;;15.40;35.00;;;;;;5051994;28;20971;-43
2022/04/20 07:33:58;;;;;;;4.07;3.67;;;15.60;34.80;;;;;;5053479;28;20186;-46
2022/04/20 07:36:23;;;;;;;3.70;3.30;;;15.70;34.30;;;;;;5053460;28;20176;-44
2022/04/20 07:38:49;;;;;;;4.07;3.77;;;15.70;34.10;;;;;;5052827;28;20436;-43
2022/04/20 07:41:15;;;;;;;3.50;3.20;;;15.80;34.30;;;;;;5053968;28;20752;-44
2022/04/20 07:43:41;;;;;;;2.60;2.40;;;16.00;34.90;;;;;;5053388;28;20206;-46
2022/04/20 07:46:07;;;;;;;3.10;2.43;;;16.20;37.90;;;;;;5056677;28;20455;-44
2022/04/20 07:48:32;;;;;;;6.20;3.13;;;16.50;39.60;;;;;;5057306;28;20255;-46
2022/04/20 07:51:00;;;;;;;3.00;2.70;;;16.90;39.30;;;;;;5058252;28;20472;-45
2022/04/20 07:53:26;;;;;;;2.93;2.40;;;17.10;39.00;;;;;;5056557;28;20238;-44
2022/04/20 07:55:52;;;;;;;5.50;3.40;;;17.50;40.20;;;;;;5054163;28;20417;-47
2022/04/20 07:58:18;;;;;;;5.27;3.00;;;17.80;38.50;;;;;;5053293;28;20433;-46
2022/04/20 08:00:45;;;;;;;2.97;2.70;;;17.90;37.70;;;;;;5053864;28;20413;-45
2022/04/20 08:03:12;;;;;;;5.70;3.67;;;18.20;38.30;;;;;;5052738;28;20203;-44
2022/04/20 08:05:38;;;;;;;3.80;3.20;;;18.40;37.70;;;;;;5053508;28;20422;-49
2022/04/20 08:08:05;;;;;;;2.80;2.60;;;18.60;37.10;;;;;;5052317;28;20440;-45
2022/04/20 08:10:31;;;;;;;2.50;2.30;;;18.80;37.90;;;;;;5053745;28;20602;-44
2022/04/20 08:12:56;;;;;;;2.70;2.50;;;19.10;37.80;;;;;;5055229;28;20562;-43
2022/04/20 08:15:22;;;;;;;3.73;2.60;;;19.40;37.60;;;;;;5057077;28;20527;-44
2022/04/20 08:17:48;;;;;;;3.43;2.50;;;19.60;36.60;;;;;;5038851;28;20187;-46
2022/04/20 08:20:13;;;;;;;4.20;3.63;;;19.90;36.60;;;;;;5056032;28;20190;-45
2022/04/20 08:22:41;;;;;;;2.93;2.73;;;20.00;34.10;;;;;;5054853;28;20499;-43
2022/04/20 08:25:08;;;;;;;4.40;2.70;;;20.10;35.40;;;;;;5052241;28;20401;-44
2022/04/20 08:27:34;;;;;;;4.43;3.27;;;20.30;35.70;;;;;;5053294;28;20418;-50
2022/04/20 08:29:59;;;;;;;4.27;3.53;;;20.50;35.70;;;;;;5052839;28;20437;-47
2022/04/20 08:32:25;;;;;;;3.67;3.37;;;20.70;33.60;;;;;;5051156;28;20282;-45
2022/04/20 08:34:51;;;;;;;3.87;3.50;;;20.80;33.60;;;;;;5053286;28;20191;-45
2022/04/20 08:37:17;;;;;;;3.30;3.00;;;21.00;34.30;;;;;;5055439;28;20660;-46
2022/04/20 08:39:43;;;;;;;2.60;2.30;;;21.20;34.30;;;;;;5056132;28;20185;-44
2022/04/20 08:42:12;;;;;;;3.13;2.10;;;21.60;34.30;;;;;;5057048;28;20418;-45
2022/04/20 08:44:50;;;;;;;3.90;2.20;;;21.80;34.80;;;;;;5058079;28;20427;-45
2022/04/20 08:47:23;;;;;;;3.30;2.73;;;22.20;34.30;;;;;;5056691;28;20416;-44
2022/04/20 08:49:50;;;;;;;3.03;2.67;;;22.40;33.50;;;;;;5053166;28;20422;-45
2022/04/20 08:52:38;;;;;;;2.43;1.90;;;22.60;33.50;;;;;;5054688;28;20449;-46
2022/04/20 08:55:05;;;;;;;3.40;2.47;;;22.90;33.10;;;;;;5052181;28;20824;-46
2022/04/20 08:57:32;;;;;;;3.20;2.30;;;23.10;32.30;;;;;;5055271;28;20414;-45
2022/04/20 08:59:59;;;;;;;2.40;2.20;;;23.30;32.30;;;;;;5059398;28;20446;-45
2022/04/20 09:02:25;;;;;;;2.47;2.20;;;23.50;32.00;;;;;;5055477;28;20415;-47
2022/04/20 09:04:52;;;;;;;3.27;2.97;;;23.70;31.80;;;;;;5057568;28;20406;-46
2022/04/20 09:07:18;;;;;;;2.90;2.50;;;23.90;31.20;;;;;;5052129;28;20509;-45
2022/04/20 09:09:44;;;;;;;3.63;2.40;;;24.00;30.30;;;;;;5055407;28;20751;-45
2022/04/20 09:12:14;;;;;;;2.90;2.70;;;24.30;30.80;;;;;;5040080;28;20574;-46
2022/04/20 09:14:41;;;;;;;3.67;2.73;;;24.40;30.10;;;;;;5055025;28;20413;-44
2022/04/20 09:17:10;;;;;;;4.30;2.77;;;24.60;30.00;;;;;;5037545;28;20421;-45
2022/04/20 09:19:36;;;;;;;2.70;2.33;;;24.70;29.70;;;;;;5054825;28;20880;-43
2022/04/20 09:22:16;;;;;;;4.53;2.53;;;24.90;29.50;;;;;;5055380;28;20413;-44
2022/04/20 09:25:11;;;;;;;3.30;3.10;;;25.10;29.60;;;;;;5039355;28;20451;-44
2022/04/20 09:27:39;;;;;;;6.07;3.20;;;25.30;28.80;;;;;;5055658;28;20420;-43
2022/04/20 09:30:09;;;;;;;3.90;3.60;;;25.40;27.70;;;;;;5038565;28;20453;-47
2022/04/20 09:32:40;;;;;;;3.47;2.97;;;25.40;27.90;;;;;;5056126;28;20436;-46
2022/04/20 09:35:09;;;;;;;3.33;2.93;;;25.30;27.90;;;;;;5055020;28;20416;-45
2022/04/20 09:37:36;;;;;;;2.70;2.50;;;25.20;27.90;;;;;;5054467;28;20428;-45
2022/04/20 09:40:04;;;;;;;3.20;2.63;;;25.30;27.90;;;;;;5054171;28;20431;-43
2022/04/20 09:42:31;;;;;;;4.27;2.60;;;25.50;27.60;;;;;;5054952;28;20429;-46
2022/04/20 09:45:19;;;;;;;2.73;2.30;;;25.70;27.20;;;;;;5056235;28;20486;-46
2022/04/20 09:50:30;;;;;;;4.20;3.10;;;26.00;26.90;;;;;;5055607;28;20506;-45
2022/04/20 09:52:59;;;;;;;3.37;2.90;;;26.20;26.90;;;;;;5057011;28;20721;-45
2022/04/20 09:55:33;;;;;;;3.20;2.87;;;26.40;26.70;;;;;;5057068;28;20510;-44
2022/04/20 09:58:18;;;;;;;3.13;2.67;;;26.60;26.70;;;;;;5057243;28;20444;-44
2022/04/20 10:00:54;;;;;;;3.97;3.57;;;26.70;26.40;;;;;;5055169;28;20421;-44
2022/04/20 10:03:27;;;;;;;3.17;2.87;;;26.70;25.90;;;;;;5056372;28;20427;-46
2022/04/20 10:05:53;;;;;;;3.80;3.50;;;26.90;26.00;;;;;;5056525;28;20698;-45
2022/04/20 10:08:20;;;;;;;3.00;2.70;;;26.90;25.70;;;;;;5056067;28;20472;-45
2022/04/20 10:10:48;;;;;;;3.40;3.10;;;27.10;25.80;;;;;;5038651;28;20795;-48
2022/04/20 10:13:16;;;;;;;3.33;3.03;;;27.30;25.80;;;;;;5055001;28;20936;-44
2022/04/20 10:18:47;;;;;;;2.60;2.40;;;27.80;26.00;;;;;;4980722;28;20446;-46
2022/04/20 10:21:13;;;;;;;3.20;2.80;;;28.00;26.20;;;;;;5013269;28;20858;-42
2022/04/20 10:23:49;;;;;;;3.60;3.30;;;28.00;25.30;;;;;;5052573;28;20439;-44
2022/04/20 10:26:17;;;;;;;4.00;3.70;;;28.30;25.10;;;;;;5052009;28;20413;-45
2022/04/20 10:28:58;;;;;;;3.50;3.20;;;28.20;24.20;;;;;;5034377;28;20577;-44
2022/04/20 10:31:56;;;;;;;4.10;3.70;;;28.20;24.00;;;;;;5053305;28;20477;-45
2022/04/20 10:34:22;;;;;;;5.03;3.13;;;28.50;23.90;;;;;;5051914;28;20784;-45
2022/04/20 10:37:03;;;;;;;4.93;3.03;;;28.70;24.10;;;;;;5051454;28;21027;-44
2022/04/20 10:39:34;;;;;;;3.97;3.67;;;29.10;24.40;;;;;;5051918;28;20479;-45
2022/04/20 10:42:12;;;;;;;3.63;3.33;;;29.40;24.30;;;;;;5051499;28;20512;-44
2022/04/20 10:45:11;;;;;;;3.30;3.00;;;29.60;23.90;;;;;;5052348;28;20704;-46
2022/04/20 10:47:42;;;;;;;4.77;3.37;;;29.80;23.50;;;;;;5053616;28;20431;-45
2022/04/20 10:50:25;;;;;;;3.87;3.23;;;30.00;23.60;;;;;;5053066;28;20425;-44
2022/04/20 10:53:03;;;;;;;3.20;3.00;;;30.10;23.50;;;;;;5055069;28;20426;-43
2022/04/20 10:55:35;;;;;;;3.40;3.10;;;30.30;23.40;;;;;;5054977;28;20388;-46
2022/04/20 10:58:05;;;;;;;3.77;3.00;;;30.70;23.60;;;;;;5054781;28;20414;-47
2022/04/20 11:00:36;;;;;;;3.50;3.07;;;30.90;23.40;;;;;;5055500;28;20546;-45
2022/04/20 11:03:06;;;;;;;3.57;3.27;;;31.50;23.60;;;;;;5054330;28;20454;-44
2022/04/20 11:05:41;;;;;;;4.03;3.50;;;31.80;23.20;;;;;;5056823;28;20421;-45
2022/04/20 11:08:12;;;;;;;4.10;3.80;;;31.80;22.70;;;;;;5037793;28;20548;-45
2022/04/20 11:10:42;;;;;;;3.70;3.37;;;32.20;22.90;;;;;;5055299;28;20463;-45
2022/04/20 11:19:06;;;;;;;3.27;3.00;;;32.80;23.00;;;;;;5053163;28;20431;-46
2022/04/20 11:21:32;;;;;;;3.80;3.50;;;32.90;23.10;;;;;;5051941;28;20468;-47
2022/04/20 11:24:08;;;;;;;4.00;3.60;;;32.90;23.00;;;;;;5051856;28;20405;-46
2022/04/20 11:26:39;;;;;;;3.93;3.63;;;32.70;22.00;;;;;;5052388;28;20664;-43
2022/04/20 11:29:16;;;;;;;3.73;3.30;;;32.80;22.30;;;;;;5053070;28;20419;-46
2022/04/20 11:31:50;;;;;;;6.03;3.30;;;33.00;22.70;;;;;;5049998;28;20936;-45
2022/04/20 11:34:20;;;;;;;3.40;3.10;;;33.30;22.70;;;;;;5051119;28;20777;-45
2022/04/20 11:36:51;;;;;;;4.30;3.60;;;33.50;22.50;;;;;;5050918;28;20434;-42
2022/04/20 11:39:19;;;;;;;5.07;3.47;;;33.50;22.30;;;;;;5034215;28;21002;-43
2022/04/20 11:41:45;;;;;;;4.50;4.20;;;33.40;21.90;;;;;;5052063;28;20725;-44
2022/04/20 11:44:32;;;;;;;3.90;3.60;;;33.10;21.30;;;;;;5032937;28;20868;-43
2022/04/20 11:47:01;;;;;;;3.53;3.23;;;32.80;21.40;;;;;;5052232;28;20692;-48
2022/04/20 11:49:41;;;;;;;3.50;3.20;;;32.70;21.70;;;;;;5035989;28;20703;-44
2022/04/20 11:52:09;;;;;;;3.60;3.30;;;32.60;22.30;;;;;;5054846;28;20471;-44
2022/04/20 11:54:36;;;;;;;3.20;2.90;;;33.00;22.50;;;;;;5053654;28;20485;-45
2022/04/20 11:57:02;;;;;;;4.13;3.73;;;33.30;22.30;;;;;;5052330;28;20497;-47
2022/04/20 11:59:29;;;;;;;3.93;3.63;;;33.50;21.90;;;;;;5053323;28;20415;-45
2022/04/20 12:01:55;;;;;;;4.70;3.60;;;33.40;21.60;;;;;;5054060;28;20427;-44
2022/04/20 12:04:25;;;;;;;3.83;3.27;;;33.50;21.60;;;;;;5049947;28;20506;-44
2022/04/20 12:06:59;;;;;;;3.30;3.10;;;33.70;21.50;;;;;;5053737;28;20406;-46
2022/04/20 12:09:29;;;;;;;3.87;3.57;;;33.90;21.60;;;;;;5036477;28;20526;-44
2022/04/20 12:11:57;;;;;;;4.20;3.57;;;34.00;21.20;;;;;;5051735;28;20475;-45
2022/04/20 12:14:24;;;;;;;5.60;3.43;;;33.70;21.10;;;;;;5052008;28;20528;-47
2022/04/20 12:16:52;;;;;;;3.60;3.30;;;33.50;21.70;;;;;;5018390;28;20423;-43
2022/04/20 12:19:19;;;;;;;4.70;3.33;;;33.80;22.10;;;;;;5036480;28;20408;-44
2022/04/20 12:21:46;;;;;;;4.20;3.80;;;34.30;22.10;;;;;;5033833;28;20451;-46
2022/04/20 12:24:24;;;;;;;5.00;3.70;;;34.50;21.80;;;;;;5051290;28;20724;-46
2022/04/20 12:26:52;;;;;;;3.83;3.20;;;34.80;21.50;;;;;;5051353;28;20796;-45
2022/04/20 12:29:22;;;;;;;3.50;3.20;;;35.10;21.50;;;;;;5052404;28;20503;-46
2022/04/20 12:31:49;;;;;;;3.07;2.80;;;35.40;21.40;;;;;;5056339;28;20433;-42
2022/04/20 12:34:16;;;;;;;3.77;3.37;;;35.80;21.50;;;;;;5055415;28;20453;-44
2022/04/20 12:37:13;;;;;;;3.20;3.00;;;36.10;21.10;;;;;;5055043;28;20384;-44
2022/04/20 12:39:42;;;;;;;4.00;3.70;;;36.10;20.70;;;;;;5038374;28;20469;-46
2022/04/20 12:42:12;;;;;;;3.50;3.20;;;36.30;20.70;;;;;;5054260;28;20390;-45
2022/04/20 12:45:02;;;;;;;3.87;3.57;;;36.40;20.80;;;;;;5054767;28;20523;-43
2022/04/20 12:47:29;;;;;;;5.13;3.30;;;36.70;20.60;;;;;;5056521;28;20544;-44
2022/04/20 12:50:03;;;;;;;3.27;3.07;;;37.10;20.80;;;;;;5037017;28;20430;-46
2022/04/20 12:52:29;;;;;;;3.87;3.60;;;37.10;20.80;;;;;;5054435;28;20426;-49
2022/04/20 12:54:55;;;;;;;4.03;3.73;;;37.20;20.50;;;;;;5056474;28;20579;-44
2022/04/20 13:03:15;;;;;;;4.03;3.40;;;36.70;20.00;;;;;;5041685;28;20497;-43
2022/04/20 13:05:42;;;;;;;3.60;3.30;;;36.50;20.30;;;;;;5056798;28;20414;-50
2022/04/20 13:08:09;;;;;;;4.23;3.93;;;36.70;20.60;;;;;;5055931;28;20429;-44
2022/04/20 13:10:40;;;;;;;3.80;3.50;;;37.00;20.60;;;;;;5037507;28;20451;-48
2022/04/20 13:13:07;;;;;;;3.10;2.90;;;37.30;20.70;;;;;;5055621;28;20461;-47
2022/04/20 13:15:34;;;;;;;3.53;3.23;;;37.40;20.70;;;;;;5037642;28;20531;-47
2022/04/20 13:18:00;;;;;;;3.87;3.57;;;37.60;20.60;;;;;;5054278;28;20703;-46
2022/04/20 13:20:27;;;;;;;3.80;3.50;;;37.80;20.50;;;;;;5054461;28;20439;-45
2022/04/20 13:22:53;;;;;;;3.57;3.27;;;37.70;20.20;;;;;;5055130;28;20430;-45
2022/04/20 13:28:03;;;;;;;4.20;3.90;;;37.70;20.00;;;;;;5056083;28;20427;-48
2022/04/20 13:30:36;;;;;;;4.50;3.83;;;37.80;19.50;;;;;;5054240;28;20446;-44
2022/04/20 13:33:03;;;;;;;3.23;3.03;;;37.80;19.80;;;;;;5073368;28;20448;-44